Time;durP1;ratioP1;P1;durP2;ratioP2;P2;SDS_P1;SDS_P2;PMS_P1;PMS_P2;Temp;Humidity;BMP_temperature;BMP_pressure;BME280_temperature;BME280_humidity;BME280_pressure;Samples;Min_cycle;Max_cycle;Signal;HPM_P1;HPM_P2
2022/05/17 00:00:04;;;;;;;17.67;14.77;;;16.60;99.90;;;;;;5111732;28;20024;-65
2022/05/17 00:02:38;;;;;;;23.77;15.05;;;16.60;99.90;;;;;;5111906;28;20035;-65
2022/05/17 00:05:05;;;;;;;20.55;14.30;;;16.60;99.90;;;;;;5111702;28;20036;-67
2022/05/17 00:07:30;;;;;;;20.98;15.07;;;16.60;99.90;;;;;;5111426;28;20031;-65
2022/05/17 00:09:56;;;;;;;20.05;14.68;;;16.60;99.90;;;;;;5111401;28;20111;-67
2022/05/17 00:12:22;;;;;;;20.50;14.27;;;16.60;99.90;;;;;;5111798;28;20400;-67
2022/05/17 00:14:48;;;;;;;20.90;14.05;;;16.50;99.90;;;;;;5111588;28;20031;-65
2022/05/17 00:17:14;;;;;;;18.33;14.07;;;16.40;99.90;;;;;;5111431;28;20019;-65
2022/05/17 00:19:40;;;;;;;18.58;13.50;;;16.40;99.90;;;;;;5111239;28;20070;-65
2022/05/17 00:22:08;;;;;;;19.48;13.57;;;16.40;99.90;;;;;;5111545;28;20023;-65
2022/05/17 00:24:34;;;;;;;23.92;15.10;;;16.30;99.90;;;;;;5111607;28;20125;-65
2022/05/17 00:27:00;;;;;;;21.30;14.55;;;16.30;99.90;;;;;;5111448;28;20057;-65
2022/05/17 00:29:27;;;;;;;19.83;13.60;;;16.30;99.90;;;;;;5110093;28;20696;-65
2022/05/17 00:31:53;;;;;;;19.25;13.63;;;16.30;99.90;;;;;;5111628;28;20165;-65
2022/05/17 00:34:20;;;;;;;20.48;14.65;;;16.30;99.90;;;;;;5111586;28;20098;-65
2022/05/17 00:36:46;;;;;;;19.58;13.57;;;16.30;99.90;;;;;;5111367;28;20028;-66
2022/05/17 00:39:12;;;;;;;22.75;15.35;;;16.30;99.90;;;;;;5111447;28;20027;-66
2022/05/17 00:41:38;;;;;;;19.73;13.48;;;16.30;99.90;;;;;;5111679;28;20507;-65
2022/05/17 00:47:00;;;;;;;20.05;14.13;;;16.30;99.90;;;;;;5111181;28;20026;-66
2022/05/17 00:49:28;;;;;;;19.10;13.95;;;16.20;99.90;;;;;;5111204;28;20059;-66
2022/05/17 00:51:59;;;;;;;23.33;13.57;;;16.20;99.90;;;;;;5111311;28;20030;-64
2022/05/17 00:54:26;;;;;;;21.30;13.20;;;16.20;99.90;;;;;;5111346;28;20480;-67
2022/05/17 00:57:29;;;;;;;19.35;12.70;;;16.20;99.90;;;;;;5109858;28;20088;-66
2022/05/17 01:00:01;;;;;;;17.90;12.95;;;16.20;99.90;;;;;;5093135;28;20092;-65
2022/05/17 01:02:28;;;;;;;21.25;12.77;;;16.10;99.90;;;;;;5115385;28;20106;-66
2022/05/17 01:04:54;;;;;;;18.05;12.38;;;16.10;99.90;;;;;;5115155;28;20042;-66
2022/05/17 01:07:24;;;;;;;19.55;13.50;;;16.10;99.90;;;;;;5115045;28;20028;-66
2022/05/17 01:09:50;;;;;;;17.85;11.82;;;16.10;99.90;;;;;;5114929;27;20032;-67
2022/05/17 01:12:16;;;;;;;18.35;12.90;;;16.10;99.90;;;;;;5115174;28;20094;-67
2022/05/17 01:14:57;;;;;;;17.05;12.30;;;16.10;99.90;;;;;;5115063;28;20019;-66
2022/05/17 01:17:33;;;;;;;18.80;12.48;;;16.00;99.90;;;;;;5114800;28;20024;-65
2022/05/17 01:20:00;;;;;;;20.17;13.32;;;16.00;99.90;;;;;;5114602;28;20556;-65
2022/05/17 01:22:26;;;;;;;19.50;13.38;;;16.00;99.90;;;;;;5114940;28;20027;-66
2022/05/17 01:24:52;;;;;;;16.95;11.93;;;16.00;99.90;;;;;;5114874;28;20023;-65
2022/05/17 01:27:25;;;;;;;15.70;11.88;;;16.00;99.90;;;;;;5114585;28;20589;-66
2022/05/17 01:29:52;;;;;;;20.70;12.60;;;16.00;99.90;;;;;;5114521;28;20043;-65
2022/05/17 01:32:18;;;;;;;20.13;13.07;;;15.90;99.90;;;;;;5114736;28;20032;-65
2022/05/17 01:34:45;;;;;;;18.75;12.68;;;15.90;99.90;;;;;;5114482;28;20031;-65
2022/05/17 01:37:12;;;;;;;16.45;11.70;;;15.90;99.90;;;;;;5114377;28;20115;-65
2022/05/17 01:39:39;;;;;;;17.27;12.25;;;15.90;99.90;;;;;;5114355;28;20039;-65
2022/05/17 01:42:06;;;;;;;18.88;12.25;;;15.90;99.90;;;;;;5114429;28;20028;-65
2022/05/17 01:44:33;;;;;;;22.65;13.35;;;15.90;99.90;;;;;;5114482;28;20085;-65
2022/05/17 01:46:58;;;;;;;17.15;12.48;;;15.80;99.90;;;;;;5114243;28;20405;-65
2022/05/17 01:49:25;;;;;;;20.02;13.38;;;15.80;99.90;;;;;;5114114;28;20035;-65
2022/05/17 01:51:51;;;;;;;17.75;12.10;;;15.80;99.90;;;;;;5114230;28;20392;-65
2022/05/17 01:54:17;;;;;;;19.55;12.35;;;15.80;99.90;;;;;;5114558;28;20027;-65
2022/05/17 01:56:42;;;;;;;17.80;12.25;;;15.80;99.90;;;;;;5113995;28;20035;-65
2022/05/17 01:59:08;;;;;;;16.90;11.95;;;15.80;99.90;;;;;;5113812;28;20035;-66
2022/05/17 02:01:35;;;;;;;17.10;11.40;;;15.80;99.90;;;;;;5114011;28;20028;-65
2022/05/17 02:04:00;;;;;;;14.60;10.70;;;15.70;99.90;;;;;;5113870;28;20427;-65
2022/05/17 02:06:26;;;;;;;19.00;11.48;;;15.70;99.90;;;;;;5113821;28;20023;-65
2022/05/17 02:08:52;;;;;;;15.55;10.70;;;15.70;99.90;;;;;;5113847;28;20023;-65
2022/05/17 02:11:18;;;;;;;14.82;10.38;;;15.70;99.90;;;;;;5112169;28;20106;-65
2022/05/17 02:13:44;;;;;;;13.98;10.45;;;15.60;99.90;;;;;;5113933;28;20411;-66
2022/05/17 02:16:13;;;;;;;15.35;10.52;;;15.60;99.90;;;;;;5113550;28;20103;-66
2022/05/17 02:18:39;;;;;;;14.32;10.60;;;15.60;99.90;;;;;;5113398;28;20030;-66
2022/05/17 02:21:07;;;;;;;16.50;10.88;;;15.60;99.90;;;;;;5113648;28;20028;-65
2022/05/17 02:23:33;;;;;;;16.17;11.30;;;15.60;99.90;;;;;;5113709;28;20077;-66
2022/05/17 02:25:59;;;;;;;16.67;10.75;;;15.60;99.90;;;;;;5113515;28;20533;-65
2022/05/17 02:28:25;;;;;;;17.17;10.57;;;15.60;99.90;;;;;;5113659;28;20050;-65
2022/05/17 02:30:51;;;;;;;17.63;10.82;;;15.60;99.90;;;;;;5113245;28;20038;-66
2022/05/17 02:33:17;;;;;;;14.80;10.50;;;15.50;99.90;;;;;;5113410;28;20058;-66
2022/05/17 02:35:43;;;;;;;19.02;10.32;;;15.50;99.90;;;;;;5113273;27;20039;-66
2022/05/17 02:38:10;;;;;;;17.02;10.50;;;15.50;99.90;;;;;;5113212;28;20034;-66
2022/05/17 02:40:36;;;;;;;15.10;9.63;;;15.50;99.90;;;;;;5113036;28;20546;-65
2022/05/17 02:43:04;;;;;;;18.08;10.88;;;15.50;99.90;;;;;;5113269;28;20031;-66
2022/05/17 02:45:30;;;;;;;16.75;10.50;;;15.50;99.90;;;;;;5113109;28;20487;-65
2022/05/17 02:47:56;;;;;;;14.13;9.48;;;15.40;99.90;;;;;;5112902;28;20032;-66
2022/05/17 02:50:23;;;;;;;15.52;9.52;;;15.40;99.90;;;;;;5112832;28;20027;-65
2022/05/17 02:52:49;;;;;;;13.00;10.38;;;15.40;99.90;;;;;;5113360;28;20415;-66
2022/05/17 02:55:15;;;;;;;14.77;9.55;;;15.40;99.90;;;;;;5112980;28;20051;-65
2022/05/17 02:57:41;;;;;;;15.57;9.88;;;15.40;99.90;;;;;;5112573;28;20031;-65
2022/05/17 03:00:12;;;;;;;15.60;10.57;;;15.40;99.90;;;;;;5112597;28;20365;-65
2022/05/17 03:02:38;;;;;;;14.73;9.60;;;15.40;99.90;;;;;;5112879;28;20403;-66
2022/05/17 03:05:04;;;;;;;14.38;9.60;;;15.40;99.90;;;;;;5112816;28;20031;-66
2022/05/17 03:07:31;;;;;;;15.52;10.13;;;15.30;99.90;;;;;;5112608;28;20115;-66
2022/05/17 03:09:57;;;;;;;14.15;10.18;;;15.30;99.90;;;;;;5112473;28;20532;-65
2022/05/17 03:12:23;;;;;;;17.23;10.50;;;15.30;99.90;;;;;;5112736;28;20034;-66
2022/05/17 03:14:49;;;;;;;14.77;10.32;;;15.30;99.90;;;;;;5112542;28;20024;-66
2022/05/17 03:17:16;;;;;;;16.52;10.45;;;15.30;99.90;;;;;;5112437;28;20426;-66
2022/05/17 03:19:43;;;;;;;17.55;10.25;;;15.30;99.90;;;;;;5111927;28;20038;-66
2022/05/17 03:22:11;;;;;;;17.05;10.77;;;15.30;99.90;;;;;;5111104;28;20035;-66
2022/05/17 03:24:37;;;;;;;16.10;10.38;;;15.20;99.90;;;;;;5109518;28;20024;-65
2022/05/17 03:27:03;;;;;;;15.00;10.23;;;15.20;99.90;;;;;;5101371;28;20026;-67
2022/05/17 03:29:30;;;;;;;17.63;10.57;;;15.30;99.90;;;;;;5109263;28;20039;-68
2022/05/17 03:31:56;;;;;;;17.95;11.55;;;15.30;99.90;;;;;;5111554;28;20028;-68
2022/05/17 03:34:22;;;;;;;17.30;11.55;;;15.30;99.90;;;;;;5111123;28;20394;-67
2022/05/17 03:36:48;;;;;;;18.42;11.18;;;15.40;99.90;;;;;;5111059;28;20046;-67
2022/05/17 03:39:14;;;;;;;21.75;12.23;;;15.50;99.90;;;;;;5110499;28;20491;-66
2022/05/17 03:41:40;;;;;;;16.05;10.60;;;15.50;99.90;;;;;;5110450;28;20046;-66
2022/05/17 03:44:06;;;;;;;20.02;12.60;;;15.50;99.90;;;;;;5110924;28;20023;-68
2022/05/17 03:46:31;;;;;;;16.77;11.23;;;15.50;99.90;;;;;;5110583;28;20120;-66
2022/05/17 03:48:59;;;;;;;16.80;10.98;;;15.50;99.90;;;;;;5110800;28;20031;-67
2022/05/17 03:51:25;;;;;;;19.25;11.90;;;15.50;99.90;;;;;;5110503;28;20028;-66
2022/05/17 03:53:51;;;;;;;19.45;11.60;;;15.50;99.90;;;;;;5110703;28;20038;-66
2022/05/17 03:56:18;;;;;;;20.95;11.20;;;15.50;99.90;;;;;;5110258;28;20049;-66
2022/05/17 03:58:44;;;;;;;15.63;11.32;;;15.50;99.90;;;;;;5110081;28;20040;-66
2022/05/17 04:01:12;;;;;;;16.33;11.00;;;15.50;99.90;;;;;;5110666;28;20054;-66
2022/05/17 04:03:38;;;;;;;16.23;10.85;;;15.50;99.90;;;;;;5110785;28;20477;-66
2022/05/17 04:06:05;;;;;;;16.02;10.95;;;15.60;99.90;;;;;;5109079;28;20031;-66
2022/05/17 04:08:32;;;;;;;19.45;11.35;;;15.60;99.90;;;;;;5110389;28;20035;-66
2022/05/17 04:10:58;;;;;;;17.90;10.80;;;15.60;99.90;;;;;;5110465;28;20027;-66
2022/05/17 04:13:29;;;;;;;17.60;10.93;;;15.70;99.90;;;;;;5110066;28;20034;-67
2022/05/17 04:15:56;;;;;;;18.10;11.50;;;15.70;99.90;;;;;;5110269;28;20032;-67
2022/05/17 04:18:22;;;;;;;16.92;11.10;;;15.70;99.90;;;;;;5110153;28;20474;-66
2022/05/17 04:20:48;;;;;;;13.77;9.88;;;15.80;99.90;;;;;;5110318;28;20047;-67
2022/05/17 04:23:14;;;;;;;16.88;10.60;;;15.80;99.90;;;;;;5109935;28;20058;-66
2022/05/17 04:25:40;;;;;;;19.70;10.30;;;15.80;99.90;;;;;;5109866;28;20023;-66
2022/05/17 04:28:06;;;;;;;14.23;10.57;;;15.80;99.90;;;;;;5109769;28;20711;-66
2022/05/17 04:30:32;;;;;;;17.38;10.02;;;15.80;99.90;;;;;;5108679;28;20480;-66
2022/05/17 04:33:01;;;;;;;15.98;11.27;;;15.80;99.90;;;;;;5109857;28;20106;-67
2022/05/17 04:35:28;;;;;;;15.10;10.30;;;15.80;99.90;;;;;;5108675;28;20046;-67
2022/05/17 04:37:54;;;;;;;17.70;10.98;;;15.80;99.90;;;;;;5109453;28;20092;-67
2022/05/17 04:40:20;;;;;;;20.17;11.52;;;15.80;99.90;;;;;;5110014;28;20506;-69
2022/05/17 04:42:47;;;;;;;19.15;10.95;;;15.80;99.90;;;;;;5109590;28;20027;-67
2022/05/17 04:45:16;;;;;;;15.05;9.55;;;15.80;99.90;;;;;;5110170;28;20026;-67
2022/05/17 04:47:43;;;;;;;17.80;10.23;;;15.80;99.90;;;;;;5109601;28;20490;-67
2022/05/17 04:50:11;;;;;;;14.35;9.55;;;15.90;99.90;;;;;;5109975;28;20054;-67
2022/05/17 04:52:37;;;;;;;18.83;11.30;;;15.90;99.90;;;;;;5109489;28;20030;-67
2022/05/17 04:55:04;;;;;;;15.95;10.95;;;15.90;99.90;;;;;;5109988;28;20032;-67
2022/05/17 04:57:30;;;;;;;18.95;10.88;;;15.90;99.90;;;;;;5109783;28;20375;-67
2022/05/17 04:59:57;;;;;;;17.60;10.55;;;16.00;99.90;;;;;;5110027;28;20053;-67
2022/05/17 05:02:23;;;;;;;19.23;10.52;;;16.00;99.90;;;;;;5110043;28;20028;-67
2022/05/17 05:04:49;;;;;;;17.30;10.60;;;16.00;99.90;;;;;;5110101;28;20031;-67
2022/05/17 05:07:14;;;;;;;15.52;10.52;;;16.10;99.90;;;;;;5109508;28;20030;-67
2022/05/17 05:09:40;;;;;;;16.75;11.23;;;16.10;99.90;;;;;;5109912;28;20100;-67
2022/05/17 05:12:07;;;;;;;14.35;10.38;;;16.20;99.90;;;;;;5108140;28;20032;-67
2022/05/17 05:14:32;;;;;;;14.57;9.93;;;16.20;99.90;;;;;;5110019;28;20388;-67
2022/05/17 05:16:58;;;;;;;25.95;14.77;;;16.30;99.90;;;;;;5109811;28;20043;-67
2022/05/17 05:19:24;;;;;;;25.85;13.90;;;16.30;99.90;;;;;;5109892;28;20074;-67
2022/05/17 05:21:50;;;;;;;18.85;12.20;;;16.30;99.90;;;;;;5109612;28;20080;-67
2022/05/17 05:24:16;;;;;;;17.63;10.38;;;16.30;99.90;;;;;;5110193;28;20046;-67
2022/05/17 05:26:42;;;;;;;19.58;11.07;;;16.30;99.90;;;;;;5109544;28;20024;-67
2022/05/17 05:29:08;;;;;;;14.93;9.40;;;16.40;99.90;;;;;;5109952;28;20661;-67
2022/05/17 05:31:34;;;;;;;24.67;11.32;;;16.40;99.90;;;;;;5109659;28;20055;-67
2022/05/17 05:34:00;;;;;;;18.73;11.02;;;16.50;99.90;;;;;;5109912;28;20360;-67
2022/05/17 05:36:27;;;;;;;14.32;10.13;;;16.50;99.90;;;;;;5109309;28;20148;-67
2022/05/17 05:38:54;;;;;;;18.33;12.15;;;16.50;99.90;;;;;;5109557;28;20507;-67
2022/05/17 05:41:21;;;;;;;18.08;10.35;;;16.60;99.90;;;;;;5109624;28;20508;-67
2022/05/17 05:43:46;;;;;;;15.40;9.90;;;16.60;99.90;;;;;;5109624;28;20027;-67
2022/05/17 05:46:12;;;;;;;23.80;11.40;;;16.70;99.90;;;;;;5110111;28;20389;-67
2022/05/17 05:48:38;;;;;;;15.85;11.18;;;16.70;99.90;;;;;;5113007;27;20038;-67
2022/05/17 05:51:06;;;;;;;16.40;10.88;;;16.80;99.90;;;;;;5111802;28;20027;-67
2022/05/17 05:53:32;;;;;;;16.52;11.30;;;16.80;99.90;;;;;;5113460;28;20127;-67
2022/05/17 05:56:01;;;;;;;24.40;12.18;;;16.80;99.90;;;;;;5113270;28;20107;-67
2022/05/17 05:58:35;;;;;;;20.40;11.70;;;16.80;99.90;;;;;;5112566;28;20027;-68
2022/05/17 06:01:01;;;;;;;18.48;11.02;;;16.90;99.90;;;;;;5113414;28;20112;-68
2022/05/17 06:03:27;;;;;;;19.60;10.80;;;17.00;99.90;;;;;;5111896;28;20032;-68
2022/05/17 06:05:53;;;;;;;18.90;11.13;;;17.20;99.90;;;;;;5113061;28;20023;-68
2022/05/17 06:08:21;;;;;;;14.93;9.75;;;17.20;99.90;;;;;;5113115;28;20427;-67
2022/05/17 06:10:47;;;;;;;16.52;10.27;;;17.20;99.90;;;;;;5112967;28;20033;-68
2022/05/17 06:13:15;;;;;;;16.48;9.52;;;17.20;99.90;;;;;;5112315;28;20395;-67
2022/05/17 06:15:42;;;;;;;14.47;8.90;;;17.30;99.90;;;;;;5111587;28;20027;-67
2022/05/17 06:18:09;;;;;;;19.75;9.32;;;17.30;99.90;;;;;;5111145;28;20354;-68
2022/05/17 06:20:36;;;;;;;18.73;10.27;;;17.40;99.90;;;;;;5111418;28;20106;-67
2022/05/17 06:23:03;;;;;;;15.40;9.02;;;17.50;99.90;;;;;;5111297;22;20055;-85
2022/05/17 06:25:29;;;;;;;15.98;9.70;;;17.50;99.90;;;;;;5071400;28;20042;-87
2022/05/17 06:27:56;;;;;;;13.52;8.27;;;17.50;99.90;;;;;;5070650;28;20120;-87
2022/05/17 06:30:22;;;;;;;17.58;10.70;;;17.50;99.90;;;;;;5069622;28;20024;-87
2022/05/17 06:32:51;;;;;;;14.10;8.85;;;17.50;99.90;;;;;;5069983;28;20035;-90
2022/05/17 06:35:17;;;;;;;19.13;10.30;;;17.60;99.90;;;;;;5070659;28;20071;-84
2022/05/17 06:37:44;;;;;;;15.73;8.80;;;17.50;99.90;;;;;;5070917;28;20128;-84
2022/05/17 06:40:10;;;;;;;14.50;10.30;;;17.60;99.90;;;;;;5070427;28;20032;-84
2022/05/17 06:42:36;;;;;;;20.80;10.45;;;17.60;99.90;;;;;;5052062;28;20032;-84
2022/05/17 06:45:06;;;;;;;15.35;10.60;;;17.60;99.90;;;;;;5071035;28;20040;-93
2022/05/17 06:47:32;;;;;;;18.20;10.88;;;17.50;99.90;;;;;;5071072;28;20024;-80
2022/05/17 06:49:58;;;;;;;16.63;10.10;;;17.60;99.90;;;;;;5070978;28;20139;-85
2022/05/17 06:52:26;;;;;;;15.73;9.32;;;17.60;99.90;;;;;;5069954;28;20417;-87
2022/05/17 06:54:52;;;;;;;13.63;9.38;;;17.60;99.90;;;;;;5070102;28;20037;-88
2022/05/17 06:57:17;;;;;;;13.75;8.77;;;17.60;99.90;;;;;;5070903;28;20040;-80
2022/05/17 06:59:45;;;;;;;16.67;9.95;;;17.70;99.90;;;;;;5070274;28;20042;-82
2022/05/17 07:02:11;;;;;;;20.63;11.02;;;17.70;99.90;;;;;;5078088;22;20077;-67
2022/05/17 07:04:38;;;;;;;21.90;10.23;;;17.80;99.90;;;;;;5070676;28;20103;-68
2022/05/17 07:07:06;;;;;;;16.63;9.85;;;17.80;99.90;;;;;;5070543;28;20484;-66
2022/05/17 07:09:36;;;;;;;15.88;9.45;;;17.90;99.90;;;;;;5070497;28;20035;-70
2022/05/17 07:14:47;;;;;;;18.77;10.90;;;18.00;99.90;;;;;;5070542;28;20398;-69
2022/05/17 07:17:16;;;;;;;21.17;10.45;;;18.10;99.90;;;;;;5070086;28;20044;-65
2022/05/17 07:19:43;;;;;;;16.23;9.75;;;18.00;99.90;;;;;;5070137;28;20043;-66
2022/05/17 07:22:10;;;;;;;16.50;9.65;;;18.10;99.90;;;;;;5070127;28;20431;-66
2022/05/17 07:24:36;;;;;;;17.63;10.18;;;18.10;99.90;;;;;;5070223;28;20029;-66
2022/05/17 07:27:05;;;;;;;19.48;10.55;;;18.10;99.90;;;;;;5069465;28;20039;-70
2022/05/17 07:29:32;;;;;;;19.33;10.20;;;18.10;99.90;;;;;;5070853;28;20036;-68
2022/05/17 07:31:58;;;;;;;15.10;10.43;;;18.10;99.90;;;;;;5070450;28;20032;-66
2022/05/17 07:34:25;;;;;;;17.30;11.30;;;18.20;99.90;;;;;;5069879;28;20060;-67
2022/05/17 07:36:51;;;;;;;16.75;10.48;;;18.10;99.90;;;;;;5068607;28;20166;-66
2022/05/17 07:39:16;;;;;;;14.38;10.02;;;18.20;99.90;;;;;;5068752;28;20483;-65
2022/05/17 07:41:42;;;;;;;21.00;12.13;;;18.20;99.90;;;;;;5068335;28;20020;-66
2022/05/17 07:44:09;;;;;;;15.93;10.70;;;18.20;99.90;;;;;;5068712;28;20090;-64
2022/05/17 07:46:35;;;;;;;18.45;10.98;;;18.20;99.90;;;;;;5067896;28;20027;-64
2022/05/17 07:49:02;;;;;;;16.83;10.63;;;18.20;99.90;;;;;;5068053;28;20024;-64
2022/05/17 07:51:29;;;;;;;22.05;11.32;;;18.20;99.90;;;;;;5069768;28;20116;-64
2022/05/17 07:53:55;;;;;;;16.95;9.43;;;18.30;99.90;;;;;;5069904;28;20139;-65
2022/05/17 07:56:21;;;;;;;14.43;8.93;;;18.40;99.90;;;;;;5069376;28;20036;-65
2022/05/17 07:58:47;;;;;;;20.05;10.90;;;18.40;99.90;;;;;;5069312;28;20035;-65
2022/05/17 08:01:13;;;;;;;17.63;10.77;;;18.50;99.90;;;;;;5069439;28;20031;-65
2022/05/17 08:03:39;;;;;;;17.95;10.50;;;18.60;99.90;;;;;;5069633;28;20060;-64
2022/05/17 08:06:05;;;;;;;15.07;9.57;;;18.70;99.90;;;;;;5069510;28;20043;-64
2022/05/17 08:08:31;;;;;;;15.25;9.30;;;18.70;99.90;;;;;;5069390;28;20025;-65
2022/05/17 08:10:57;;;;;;;18.55;11.05;;;18.70;99.90;;;;;;5069510;28;20048;-66
2022/05/17 08:13:24;;;;;;;16.15;10.20;;;18.80;99.90;;;;;;5069260;28;20051;-65
2022/05/17 08:15:51;;;;;;;19.42;10.30;;;18.80;99.90;;;;;;5069331;28;20449;-64
2022/05/17 08:18:18;;;;;;;18.92;9.70;;;18.90;99.90;;;;;;5069319;28;20035;-63
2022/05/17 08:20:45;;;;;;;19.25;9.98;;;18.90;99.90;;;;;;5069249;28;20031;-64
2022/05/17 08:23:12;;;;;;;18.25;9.65;;;18.90;99.90;;;;;;5069581;28;20028;-65
2022/05/17 08:28:24;;;;;;;18.38;8.65;;;19.00;99.90;;;;;;5069265;28;20430;-65
2022/05/17 08:30:50;;;;;;;15.50;9.52;;;19.00;99.90;;;;;;5069400;28;20527;-65
2022/05/17 08:33:18;;;;;;;16.33;9.55;;;19.00;99.90;;;;;;5069372;28;20108;-64
2022/05/17 08:35:55;;;;;;;20.77;10.02;;;19.00;99.90;;;;;;5069129;28;20029;-64
2022/05/17 08:38:31;;;;;;;16.05;9.10;;;19.00;99.90;;;;;;5069243;28;20032;-65
2022/05/17 08:41:15;;;;;;;19.88;10.60;;;19.00;99.90;;;;;;5068176;28;20040;-65
2022/05/17 08:43:55;;;;;;;14.88;9.75;;;19.00;99.90;;;;;;5068890;28;20040;-66
2022/05/17 08:46:44;;;;;;;19.13;9.55;;;19.00;99.90;;;;;;5069402;28;20029;-66
2022/05/17 08:49:22;;;;;;;20.02;10.38;;;19.10;99.90;;;;;;5069059;28;20038;-65
2022/05/17 08:52:15;;;;;;;14.90;9.52;;;19.10;99.90;;;;;;5068635;28;20127;-64
2022/05/17 08:54:46;;;;;;;16.15;9.75;;;19.10;99.90;;;;;;5068962;28;20035;-66
2022/05/17 08:57:18;;;;;;;16.98;9.32;;;19.10;99.90;;;;;;5068464;28;20025;-64
2022/05/17 08:59:47;;;;;;;17.73;9.85;;;19.10;99.90;;;;;;5068907;28;20044;-67
2022/05/17 09:02:48;;;;;;;12.40;8.35;;;19.10;99.90;;;;;;5068775;28;20032;-66
2022/05/17 09:05:17;;;;;;;16.50;8.05;;;19.10;99.90;;;;;;5068662;28;20032;-66
2022/05/17 09:07:46;;;;;;;;;;;19.10;99.90;;;;;;5068969;28;20028;-65
2022/05/17 09:10:35;;;;;;;16.55;9.02;;;19.20;99.90;;;;;;5068737;28;19908;-65
2022/05/17 09:13:15;;;;;;;19.23;9.27;;;19.20;99.90;;;;;;5068346;28;20050;-65
2022/05/17 09:15:43;;;;;;;15.63;8.65;;;19.20;99.90;;;;;;5068651;28;20131;-65
2022/05/17 09:18:13;;;;;;;14.60;8.33;;;19.20;99.90;;;;;;5068499;28;20116;-65
2022/05/17 09:20:40;;;;;;;14.32;8.40;;;19.20;99.90;;;;;;5069483;28;20469;-65
2022/05/17 09:23:06;;;;;;;13.38;8.30;;;19.20;99.90;;;;;;5072409;28;20017;-66
2022/05/17 09:25:56;;;;;;;12.65;7.70;;;19.20;99.90;;;;;;5072486;28;20056;-65
2022/05/17 09:28:28;;;;;;;14.85;8.23;;;19.10;99.90;;;;;;5071872;28;20142;-65
2022/05/17 09:31:33;;;;;;;15.05;8.57;;;19.20;99.90;;;;;;5072333;28;20037;-65
2022/05/17 09:34:02;;;;;;;12.05;7.97;;;19.20;99.90;;;;;;5049766;28;20037;-66
2022/05/17 09:36:41;;;;;;;12.38;7.78;;;19.20;99.90;;;;;;5068316;28;20036;-66
2022/05/17 09:39:08;;;;;;;13.82;7.72;;;19.20;99.90;;;;;;5072102;28;20040;-65
2022/05/17 09:41:39;;;;;;;13.45;7.50;;;19.20;99.90;;;;;;5071570;28;20037;-65
2022/05/17 09:44:11;;;;;;;15.23;8.20;;;19.20;99.90;;;;;;5072068;28;20021;-65
2022/05/17 09:46:49;;;;;;;15.20;7.90;;;19.20;99.90;;;;;;5071968;28;20103;-66
2022/05/17 09:52:42;;;;;;;14.50;8.40;;;19.20;99.90;;;;;;5071895;28;20032;-65
2022/05/17 09:55:21;;;;;;;13.95;8.02;;;19.20;99.90;;;;;;5072111;28;20049;-65
2022/05/17 09:57:58;;;;;;;14.15;8.35;;;19.30;99.90;;;;;;5071083;28;20028;-65
2022/05/17 10:00:35;;;;;;;14.15;8.13;;;19.30;99.90;;;;;;5071104;28;20036;-66
2022/05/17 10:03:19;;;;;;;12.45;7.80;;;19.30;99.90;;;;;;5071670;28;20035;-67
2022/05/17 10:06:07;;;;;;;11.82;7.35;;;19.30;99.90;;;;;;5071789;28;20062;-67
2022/05/17 10:08:37;;;;;;;11.00;6.97;;;19.20;99.90;;;;;;5071684;28;20113;-66
2022/05/17 10:11:24;;;;;;;14.00;6.90;;;19.20;99.90;;;;;;5070215;28;20047;-65
2022/05/17 10:13:58;;;;;;;12.25;6.85;;;19.20;99.90;;;;;;5070627;28;20444;-65
2022/05/17 10:16:50;;;;;;;11.60;6.88;;;19.20;99.90;;;;;;5071695;28;20057;-65
2022/05/17 10:19:27;;;;;;;14.80;6.93;;;19.20;99.90;;;;;;5071934;28;20083;-66
2022/05/17 10:22:18;;;;;;;12.07;6.45;;;19.20;99.90;;;;;;5071776;28;20708;-65
2022/05/17 10:24:56;;;;;;;10.85;6.43;;;19.30;99.90;;;;;;5071943;28;20033;-65
2022/05/17 10:27:26;;;;;;;12.30;6.13;;;19.30;99.90;;;;;;5071234;28;20100;-65
2022/05/17 10:29:54;;;;;;;12.20;6.22;;;19.40;99.90;;;;;;5071518;28;20036;-65
2022/05/17 10:32:30;;;;;;;;;;;19.40;99.90;;;;;;5071716;28;20127;-64
2022/05/17 10:34:57;;;;;;;14.77;7.70;;;19.50;99.90;;;;;;5071738;28;20395;-67
2022/05/17 10:37:41;;;;;;;12.00;6.75;;;19.50;99.90;;;;;;5070990;28;20032;-67
2022/05/17 10:40:13;;;;;;;10.32;6.55;;;19.50;99.90;;;;;;5071380;28;20032;-67
2022/05/17 10:42:40;;;;;;;11.27;6.80;;;19.50;99.90;;;;;;5071217;28;20124;-67
2022/05/17 10:45:10;;;;;;;13.85;7.55;;;19.50;99.90;;;;;;5071903;28;20095;-72
2022/05/17 10:47:58;;;;;;;32.83;19.58;;;19.50;99.90;;;;;;5071441;28;20103;-70
2022/05/17 10:50:34;;;;;;;41.45;26.23;;;19.50;99.90;;;;;;5071428;28;20033;-72
2022/05/17 10:53:29;;;;;;;43.00;25.88;;;19.50;99.90;;;;;;5071255;28;20024;-71
2022/05/17 10:56:19;;;;;;;35.05;20.33;;;19.60;99.90;;;;;;5071637;28;20416;-69
2022/05/17 10:59:04;;;;;;;24.42;14.63;;;19.60;99.90;;;;;;5071623;28;20033;-68
2022/05/17 11:01:58;;;;;;;18.63;11.38;;;19.70;99.90;;;;;;5072483;28;20029;-68
2022/05/17 11:04:57;;;;;;;18.45;10.50;;;19.70;99.90;;;;;;5073213;28;20031;-63
2022/05/17 11:07:32;;;;;;;14.35;8.43;;;19.70;99.90;;;;;;5070470;28;20035;-63
2022/05/17 11:10:20;;;;;;;16.05;8.68;;;19.60;99.90;;;;;;5070904;28;20028;-63
2022/05/17 11:12:52;;;;;;;14.48;7.70;;;19.60;99.90;;;;;;5070451;28;20408;-63
2022/05/17 11:15:32;;;;;;;13.63;7.03;;;19.60;99.90;;;;;;5071074;28;20033;-64
2022/05/17 11:18:30;;;;;;;10.15;5.57;;;19.60;99.90;;;;;;5070031;28;20032;-63
2022/05/17 11:21:07;;;;;;;10.63;5.68;;;19.50;99.90;;;;;;5070420;28;20527;-63
2022/05/17 11:23:53;;;;;;;7.70;4.55;;;19.50;99.90;;;;;;5069360;28;20027;-63
2022/05/17 11:26:42;;;;;;;10.43;4.78;;;19.50;99.90;;;;;;5069988;28;20086;-63
2022/05/17 11:29:23;;;;;;;6.90;4.18;;;19.50;99.90;;;;;;5070443;28;20116;-65
2022/05/17 11:31:58;;;;;;;8.57;4.03;;;19.50;99.90;;;;;;5070922;28;20124;-64
2022/05/17 11:34:31;;;;;;;9.00;4.30;;;19.50;99.90;;;;;;5070490;28;20068;-64
2022/05/17 11:37:01;;;;;;;9.27;4.20;;;19.50;99.90;;;;;;5070078;28;20032;-63
2022/05/17 11:39:29;;;;;;;7.18;3.85;;;19.40;99.90;;;;;;5069924;28;20067;-64
2022/05/17 11:42:06;;;;;;;7.68;3.63;;;19.40;99.90;;;;;;5069747;28;20051;-64
2022/05/17 11:44:47;;;;;;;7.07;3.40;;;19.40;99.90;;;;;;5069578;28;20127;-64
2022/05/17 11:47:37;;;;;;;7.45;4.00;;;19.40;99.90;;;;;;5069632;28;20047;-63
2022/05/17 11:50:16;;;;;;;7.65;3.72;;;19.40;99.90;;;;;;5069847;28;20035;-63
2022/05/17 11:52:47;;;;;;;7.22;3.20;;;19.40;99.90;;;;;;5069926;28;20089;-65
2022/05/17 11:55:18;;;;;;;7.50;3.50;;;19.40;99.90;;;;;;5068370;28;20233;-65
2022/05/17 11:57:47;;;;;;;14.23;3.78;;;19.50;99.90;;;;;;5068931;28;20038;-66
2022/05/17 12:00:27;;;;;;;8.48;3.25;;;19.50;99.90;;;;;;5069142;28;20032;-66
2022/05/17 12:03:04;;;;;;;8.50;3.40;;;19.50;99.90;;;;;;5069284;28;20028;-66
2022/05/17 12:05:45;;;;;;;6.57;2.85;;;19.50;99.90;;;;;;5070072;28;20275;-66
2022/05/17 12:08:31;;;;;;;7.88;3.47;;;19.60;99.90;;;;;;5069833;28;20028;-66
2022/05/17 12:11:25;;;;;;;6.75;3.15;;;19.60;99.90;;;;;;5069332;28;20503;-65
2022/05/17 12:14:30;;;;;;;8.02;2.97;;;19.70;99.90;;;;;;5069083;28;20052;-66
2022/05/17 12:17:13;;;;;;;8.15;2.70;;;19.80;99.90;;;;;;5068951;28;20032;-65
2022/05/17 12:19:53;;;;;;;7.28;2.80;;;19.90;99.90;;;;;;5068932;28;20063;-66
2022/05/17 12:22:41;;;;;;;8.88;2.70;;;19.90;99.90;;;;;;5082024;22;20016;-65
2022/05/17 12:25:19;;;;;;;5.65;3.00;;;20.00;99.90;;;;;;5048918;28;20371;-65
2022/05/17 12:27:46;;;;;;;8.13;3.03;;;20.00;99.90;;;;;;5049673;28;20166;-65
2022/05/17 12:33:32;;;;;;;8.38;3.38;;;20.10;99.90;;;;;;5049840;28;20095;-66
2022/05/17 12:36:19;;;;;;;8.25;3.10;;;20.10;99.90;;;;;;5049769;28;20033;-65
2022/05/17 12:44:50;;;;;;;4.95;2.08;;;20.20;99.90;;;;;;5050256;28;20029;-66
2022/05/17 12:47:26;;;;;;;4.47;2.10;;;20.10;99.90;;;;;;5049819;28;20032;-66
2022/05/17 12:49:55;;;;;;;4.78;2.40;;;20.10;99.90;;;;;;5049844;28;20523;-66
2022/05/17 12:52:37;;;;;;;5.20;2.40;;;20.10;99.90;;;;;;5048421;28;20029;-66
2022/05/17 12:55:32;;;;;;;4.38;2.20;;;20.10;99.90;;;;;;5051672;28;20044;-66
2022/05/17 12:58:14;;;;;;;6.65;2.05;;;20.00;99.90;;;;;;5048046;28;20409;-66
2022/05/17 13:00:41;;;;;;;3.60;2.00;;;20.00;99.90;;;;;;5053631;28;20108;-66
2022/05/17 13:03:19;;;;;;;5.93;2.10;;;20.00;99.90;;;;;;5053507;28;20029;-65
2022/05/17 13:05:48;;;;;;;6.07;2.23;;;20.00;99.90;;;;;;5053658;28;20474;-66
2022/05/17 13:08:20;;;;;;;6.78;2.58;;;20.00;99.90;;;;;;5053366;28;20041;-65
2022/05/17 13:11:24;;;;;;;6.70;2.47;;;20.10;99.90;;;;;;5053217;28;20032;-67